Fremont, MI

8:06 PM EDT on October 14, 2019 (GMT -0400)
Fremont

Weather History for KFFX - August, 2019

Change the Weather History Date:

Thursday, August 1, 2019

  Actual Average (KMKG) Record (KMKG)
Temperature  
Mean Temperature 68 °F -  
Max Temperature 81 °F 79 °F 92 °F (1975)
Min Temperature 56 °F 60 °F 43 °F (1947)
Cooling Degree Days 4    
Growing Degree Days 18 (Base 50)    
Moisture  
Dew Point 51 °F    
Average Humidity 64    
Maximum Humidity 99    
Minimum Humidity 20    
Precipitation  
Precipitation 0.00 in - - ()
Sea Level Pressure  
Sea Level Pressure 30.19 in    
Wind  
Wind Speed 3 mph (ENE)    
Max Wind Speed 13 mph    
Max Gust Speed 16 mph    
Visibility 10 miles    
Events      
Averages and records for this station are not official NWS values.
T = Trace of Precipitation, MM = Missing Value Source: NWS Daily Summary

Daily Weather History Graph

Daily Weather History Graph

Search for Another Location

Airport or City:

Astronomy

Aug. 01, 2019 Rise Set
Actual Time 6:33 AM EDT 9:06 PM EDT
Civil Twilight 6:00 AM EDT 9:38 PM EDT
Nautical Twilight 5:20 AM EDT 10:19 PM EDT
Astronomical Twilight 4:33 AM EDT 11:05 PM EDT
Moon 6:56 AM EDT (8/1) 9:52 PM EDT (8/1)
Length of Visible Light 15h 38m
Length of Day
14h 33m
New Moon, 0% of the Moon is Illuminated
Aug 1
New Moon
Aug 7
First Quarter
Aug 15
Full
Aug 23
Last Quarter
Aug 30
New

Hourly Weather History & Observations

Time (EDT) Temp. Dew Point Humidity Pressure Visibility Wind Dir Wind Speed Gust Speed Precip Events Conditions
12:19 AM 58.6 °F 53.8 °F 84% 30.17 in 10.0 mi Calm Calm - N/A   Clear
12:37 AM 57.6 °F 54.3 °F 89% 30.17 in 10.0 mi Calm Calm - N/A   Clear
12:55 AM 58.8 °F 54.1 °F 84% 30.18 in 10.0 mi NE 3.5 mph - N/A   Clear
12:56 AM 58.8 °F 54.0 °F 84% 30.18 in 10.0 mi NE 3.5 mph - N/A   Clear
1:15 AM 59.0 °F 53.1 °F 81% 30.18 in 10.0 mi NE 3.5 mph - N/A   Clear
1:35 AM 58.1 °F 54.9 °F 89% 30.17 in 10.0 mi ENE 6.9 mph - N/A   Clear
1:58 AM 57.9 °F 55.4 °F 91% 30.17 in 10.0 mi ENE 5.8 mph - N/A   Clear
2:16 AM 59.2 °F 55.8 °F 88% 30.17 in 10.0 mi ENE 4.6 mph - N/A   Clear
2:35 AM 57.4 °F 55.6 °F 94% 30.18 in 10.0 mi Calm Calm - N/A   Clear
2:55 AM 57.6 °F 55.8 °F 94% 30.18 in 10.0 mi East 3.5 mph - N/A   Clear
3:19 AM 58.1 °F 56.3 °F 94% 30.18 in 10.0 mi East 3.5 mph - N/A   Clear
3:37 AM 57.4 °F 56.3 °F 96% 30.18 in 10.0 mi East 3.5 mph - N/A   Clear
3:55 AM 58.1 °F 57.0 °F 96% 30.18 in 10.0 mi East 3.5 mph - N/A   Clear
3:56 AM 58.1 °F 57.0 °F 96% 30.18 in 10.0 mi East 3.5 mph - N/A   Clear
4:15 AM 57.7 °F 56.5 °F 96% 30.18 in 10.0 mi East 3.5 mph - N/A   Clear
4:16 AM 57.7 °F 56.5 °F 96% 30.18 in 10.0 mi East 4.6 mph - N/A   Clear
4:35 AM 57.9 °F 56.5 °F 95% 30.18 in 10.0 mi East 3.5 mph - N/A   Clear
4:40 AM 57.4 °F 56.3 °F 96% 30.18 in 10.0 mi East 4.6 mph - N/A   Clear
4:57 AM 57.2 °F 55.8 °F 95% 30.18 in 10.0 mi East 5.8 mph - N/A   Clear
5:16 AM 57.2 °F 55.9 °F 96% 30.18 in 10.0 mi East 4.6 mph - N/A   Clear
5:35 AM 57.0 °F 56.1 °F 97% 30.18 in 10.0 mi East 5.8 mph - N/A   Clear
5:55 AM 57.2 °F 56.3 °F 97% 30.18 in 10.0 mi East 4.6 mph - N/A   Clear
5:56 AM 57.2 °F 56.3 °F 97% 30.18 in 10.0 mi East 4.6 mph - N/A   Clear
6:19 AM 56.7 °F 56.3 °F 99% 30.19 in 10.0 mi East 3.5 mph - N/A   Clear
6:37 AM 56.3 °F 55.9 °F 99% 30.19 in 10.0 mi East 4.6 mph - N/A   Clear
6:55 AM 56.7 °F 56.3 °F 99% 30.20 in 10.0 mi East 4.6 mph - N/A   Clear
6:56 AM 56.7 °F 56.3 °F 99% 30.20 in 10.0 mi East 4.6 mph - N/A   Clear
7:15 AM 57.2 °F 56.3 °F 97% 30.20 in 10.0 mi East 3.5 mph - N/A   Clear
7:16 AM 57.2 °F 56.5 °F 97% 30.20 in 10.0 mi East 3.5 mph - N/A   Clear
7:35 AM 58.1 °F 57.2 °F 97% 30.21 in 10.0 mi ESE 3.5 mph - N/A   Clear
7:40 AM 58.5 °F 57.2 °F 96% 30.21 in 10.0 mi East 3.5 mph - N/A   Clear
7:58 AM 59.4 °F 57.4 °F 93% 30.21 in 10.0 mi East 4.6 mph - N/A   Clear
8:16 AM 60.8 °F 56.8 °F 87% 30.22 in 10.0 mi East 3.5 mph - N/A   Clear
8:35 AM 62.1 °F 55.8 °F 80% 30.22 in 10.0 mi Calm Calm - N/A   Clear
8:55 AM 63.9 °F 56.3 °F 76% 30.22 in 10.0 mi Calm Calm - N/A   Clear
8:56 AM 64.0 °F 56.3 °F 76% 30.22 in 10.0 mi Calm Calm - N/A   Clear
9:19 AM 66.2 °F 56.5 °F 71% 30.23 in 10.0 mi East 3.5 mph - N/A   Clear
9:37 AM 67.8 °F 56.5 °F 67% 30.23 in 10.0 mi ESE 3.5 mph - N/A   Clear
9:55 AM 69.8 °F 54.9 °F 59% 30.23 in 10.0 mi SE 4.6 mph - N/A   Clear
10:15 AM 70.7 °F 54.1 °F 56% 30.23 in 10.0 mi East 4.6 mph - N/A   Clear
10:16 AM 70.7 °F 54.1 °F 56% 30.23 in 10.0 mi ESE 4.6 mph - N/A   Clear
10:35 AM 72.1 °F 54.5 °F 54% 30.23 in 10.0 mi SSE 3.5 mph - N/A   Clear
10:40 AM 72.3 °F 53.8 °F 52% 30.23 in 10.0 mi SE 4.6 mph - N/A   Clear
10:58 AM 72.7 °F 52.3 °F 49% 30.23 in 10.0 mi East 3.5 mph - N/A   Clear
11:16 AM 74.5 °F 51.8 °F 45% 30.23 in 10.0 mi Calm Calm - N/A   Clear
11:35 AM 74.3 °F 51.6 °F 45% 30.23 in 10.0 mi ESE 3.5 mph - N/A   Clear
11:55 AM 74.3 °F 50.0 °F 42% 30.23 in 10.0 mi Calm Calm - N/A   Clear
12:19 PM 76.5 °F 47.7 °F 36% 30.23 in 10.0 mi West 3.5 mph - N/A   Scattered Clouds
12:37 PM 77.2 °F 47.5 °F 35% 30.22 in 10.0 mi Calm Calm - N/A   Scattered Clouds
12:55 PM 76.8 °F 48.4 °F 37% 30.22 in 10.0 mi NNE 3.5 mph - N/A   Scattered Clouds
1:15 PM 76.8 °F 47.3 °F 35% 30.22 in 10.0 mi ENE 5.8 mph - N/A   Clear
1:35 PM 77.7 °F 46.0 °F 33% 30.21 in 10.0 mi East 5.8 mph - N/A   Clear
1:58 PM 78.3 °F 44.6 °F 30% 30.21 in 10.0 mi NW 3.5 mph - N/A   Clear
2:16 PM 78.4 °F 44.1 °F 29% 30.20 in 10.0 mi WNW 3.5 mph - N/A   Clear
2:35 PM 78.8 °F 39.7 °F 25% 30.20 in 10.0 mi NW 3.5 mph - N/A   Clear
2:55 PM 79.0 °F 40.6 °F 25% 30.19 in 10.0 mi West 3.5 mph - N/A   Clear
3:19 PM 80.6 °F 41.7 °F 25% 30.19 in 10.0 mi North 3.5 mph - N/A   Clear
3:37 PM 80.1 °F 40.6 °F 25% 30.18 in 10.0 mi Calm Calm - N/A   Clear
3:55 PM 81.5 °F 38.8 °F 22% 30.18 in 10.0 mi Calm Calm - N/A   Clear
4:15 PM 80.8 °F 37.8 °F 21% 30.18 in 10.0 mi NNE 3.5 mph - N/A   Clear
4:35 PM 81.5 °F 36.7 °F 20% 30.18 in 10.0 mi WNW 3.5 mph - N/A   Clear
4:58 PM 81.1 °F 37.4 °F 21% 30.17 in 10.0 mi Calm Calm - N/A   Clear
5:16 PM 81.9 °F 41.5 °F 24% 30.17 in 10.0 mi Calm Calm - N/A   Clear
5:35 PM 80.4 °F 48.4 °F 32% 30.17 in 10.0 mi WNW 10.4 mph 16.1 mph N/A   Clear
5:55 PM 79.2 °F 48.0 °F 33% 30.17 in 10.0 mi WNW 11.5 mph - N/A   Clear
6:19 PM 77.9 °F 48.0 °F 35% 30.17 in 10.0 mi WNW 10.4 mph - N/A   Clear
6:37 PM 77.7 °F 46.8 °F 33% 30.17 in 10.0 mi WNW 12.7 mph - N/A   Clear
6:55 PM 77.0 °F 46.8 °F 34% 30.16 in 10.0 mi WNW 10.4 mph - N/A   Clear
6:56 PM 77.0 °F 46.8 °F 34% 30.16 in 10.0 mi WNW 11.5 mph - N/A   Clear
7:15 PM 76.5 °F 47.5 °F 36% 30.17 in 10.0 mi WNW 10.4 mph - N/A   Clear
7:35 PM 75.7 °F 48.7 °F 38% 30.17 in 10.0 mi NW 6.9 mph - N/A   Clear
7:58 PM 74.5 °F 49.5 °F 41% 30.17 in 10.0 mi NW 5.8 mph - N/A   Clear
8:16 PM 73.0 °F 50.4 °F 45% 30.17 in 10.0 mi NW 5.8 mph - N/A   Clear
8:35 PM 71.4 °F 50.9 °F 48% 30.17 in 10.0 mi NNW 6.9 mph - N/A   Clear
8:36 PM 71.2 °F 50.9 °F 49% 30.17 in 10.0 mi NNW 6.9 mph - N/A   Clear
8:55 PM 69.6 °F 49.8 °F 49% 30.17 in 10.0 mi NNW 5.8 mph - N/A   Clear
9:19 PM 67.1 °F 50.7 °F 56% 30.17 in 10.0 mi NNW 3.5 mph - N/A   Clear
9:37 PM 66.4 °F 50.7 °F 57% 30.18 in 10.0 mi Calm Calm - N/A   Clear
9:55 PM 65.8 °F 50.9 °F 58% 30.18 in 10.0 mi Calm Calm - N/A   Clear
9:56 PM 65.7 °F 50.9 °F 59% 30.18 in 10.0 mi Calm Calm - N/A   Clear
10:15 PM 63.1 °F 50.9 °F 64% 30.18 in 10.0 mi Calm Calm - N/A   Clear
10:16 PM 63.1 °F 50.9 °F 64% 30.18 in 10.0 mi Calm Calm - N/A   Clear
10:35 PM 64.0 °F 51.1 °F 63% 30.19 in 10.0 mi Calm Calm - N/A   Clear
10:58 PM 63.3 °F 50.5 °F 63% 30.18 in 10.0 mi Calm Calm - N/A   Clear
11:16 PM 60.8 °F 51.3 °F 71% 30.18 in 10.0 mi Calm Calm - N/A   Clear
11:35 PM 60.6 °F 52.0 °F 73% 30.18 in 10.0 mi Calm Calm - N/A   Clear
11:55 PM 60.1 °F 52.3 °F 76% 30.18 in 10.0 mi Calm Calm - N/A   Clear
11:56 PM 60.1 °F 52.2 °F 75% 30.18 in 10.0 mi Calm Calm - N/A   Clear